Time;durP1;ratioP1;P1;durP2;ratioP2;P2;SDS_P1;SDS_P2;PMS_P1;PMS_P2;Temp;Humidity;BMP_temperature;BMP_pressure;BME280_temperature;BME280_humidity;BME280_pressure;Samples;Min_cycle;Max_cycle;Signal;HPM_P1;HPM_P2
2022/05/17 00:01:08;;;;;;;18.90;8.25;;;;;;;;;;5010862;28;20033;-66
2022/05/17 00:03:34;;;;;;;18.98;8.93;;;;;;;;;;5010486;28;20116;-65
2022/05/17 00:06:01;;;;;;;21.40;8.68;;;;;;;;;;5011531;28;20376;-65
2022/05/17 00:08:27;;;;;;;18.67;7.85;;;;;;;;;;5010525;28;20032;-65
2022/05/17 00:10:53;;;;;;;19.15;7.63;;;;;;;;;;5011564;28;20029;-66
2022/05/17 00:13:19;;;;;;;17.85;8.23;;;;;;;;;;5011645;28;20022;-66
2022/05/17 00:15:47;;;;;;;16.83;8.85;;;;;;;;;;5011516;28;20100;-65
2022/05/17 00:18:14;;;;;;;15.85;7.75;;;;;;;;;;5011270;28;20108;-66
2022/05/17 00:20:41;;;;;;;18.55;8.00;;;;;;;;;;5011492;28;20107;-66
2022/05/17 00:23:08;;;;;;;18.52;7.88;;;;;;;;;;5011334;28;20093;-66
2022/05/17 00:25:35;;;;;;;19.48;7.40;;;;;;;;;;5010296;28;20442;-66
2022/05/17 00:28:01;;;;;;;13.30;7.22;;;;;;;;;;5011014;28;20045;-66
2022/05/17 00:30:27;;;;;;;16.05;7.15;;;;;;;;;;5011074;28;20022;-66
2022/05/17 00:32:53;;;;;;;18.52;7.28;;;;;;;;;;5011130;28;20040;-66
2022/05/17 00:35:19;;;;;;;15.88;7.05;;;;;;;;;;5011291;28;20026;-66
2022/05/17 00:37:45;;;;;;;12.88;5.93;;;;;;;;;;5011156;28;20029;-66
2022/05/17 00:40:13;;;;;;;15.60;6.35;;;;;;;;;;5011276;28;20076;-66
2022/05/17 00:42:39;;;;;;;13.73;5.75;;;;;;;;;;5025686;28;20026;-66
2022/05/17 00:45:07;;;;;;;13.73;6.57;;;;;;;;;;5011200;28;20080;-66
2022/05/17 00:47:37;;;;;;;13.70;5.53;;;;;;;;;;5011131;28;20506;-66
2022/05/17 00:50:15;;;;;;;12.85;5.43;;;;;;;;;;5010992;28;20552;-66
2022/05/17 00:53:01;;;;;;;14.50;5.00;;;;;;;;;;5011076;28;20033;-66
2022/05/17 00:55:35;;;;;;;12.70;4.90;;;;;;;;;;5010936;28;20037;-67
2022/05/17 00:58:14;;;;;;;10.18;4.45;;;;;;;;;;5026602;28;20040;-67
2022/05/17 01:00:51;;;;;;;10.43;4.40;;;;;;;;;;5010221;28;20032;-66
2022/05/17 01:03:18;;;;;;;8.35;3.67;;;;;;;;;;5011318;28;20408;-67
2022/05/17 01:05:47;;;;;;;9.10;3.47;;;;;;;;;;5011078;28;20022;-67
2022/05/17 01:08:13;;;;;;;8.88;3.85;;;;;;;;;;5011312;28;20037;-67
2022/05/17 01:10:39;;;;;;;10.13;3.53;;;;;;;;;;5026376;28;20038;-67
2022/05/17 01:15:51;;;;;;;16.30;4.38;;;;;;;;;;5015165;28;20164;-67
2022/05/17 01:18:17;;;;;;;13.82;4.07;;;;;;;;;;5013916;28;20049;-67
2022/05/17 01:20:43;;;;;;;14.25;4.57;;;;;;;;;;5014717;28;20032;-67
2022/05/17 01:23:09;;;;;;;11.60;4.20;;;;;;;;;;5014569;28;20045;-67
2022/05/17 01:25:35;;;;;;;11.55;3.80;;;;;;;;;;5014665;28;20537;-67
2022/05/17 01:28:08;;;;;;;10.00;3.63;;;;;;;;;;5014318;28;20034;-67
2022/05/17 01:30:34;;;;;;;10.95;3.80;;;;;;;;;;5014396;28;20026;-66
2022/05/17 01:33:01;;;;;;;12.32;4.47;;;;;;;;;;5013640;28;20065;-67
2022/05/17 01:35:27;;;;;;;15.60;5.05;;;;;;;;;;5013788;28;20076;-67
2022/05/17 01:37:55;;;;;;;11.32;5.55;;;;;;;;;;5014277;28;20537;-67
2022/05/17 01:40:22;;;;;;;14.77;6.32;;;;;;;;;;5029580;28;20128;-67
2022/05/17 01:42:49;;;;;;;13.18;6.32;;;;;;;;;;5014389;28;20018;-67
2022/05/17 01:45:15;;;;;;;12.43;6.97;;;;;;;;;;4994890;28;20027;-67
2022/05/17 01:47:42;;;;;;;16.27;7.07;;;;;;;;;;4994480;28;20061;-66
2022/05/17 01:50:08;;;;;;;15.05;6.32;;;;;;;;;;4994800;28;20118;-67
2022/05/17 01:52:34;;;;;;;21.52;7.35;;;;;;;;;;4995310;28;20025;-67
2022/05/17 01:55:01;;;;;;;20.33;7.50;;;;;;;;;;4994432;28;20034;-67
2022/05/17 01:57:27;;;;;;;15.25;7.22;;;;;;;;;;4994347;28;20097;-67
2022/05/17 01:59:53;;;;;;;15.63;7.10;;;;;;;;;;5012957;28;20029;-67
2022/05/17 02:02:19;;;;;;;17.63;7.78;;;;;;;;;;5013900;28;20033;-67
2022/05/17 02:04:45;;;;;;;17.80;7.75;;;;;;;;;;5012605;28;20022;-67
2022/05/17 02:07:11;;;;;;;16.02;6.93;;;;;;;;;;5012777;28;20073;-67
2022/05/17 02:09:38;;;;;;;16.23;7.25;;;;;;;;;;4995599;28;20050;-67
2022/05/17 02:12:04;;;;;;;18.75;8.35;;;;;;;;;;4994279;28;20026;-67
2022/05/17 02:14:30;;;;;;;18.98;8.25;;;;;;;;;;5009171;28;20386;-67
2022/05/17 02:16:58;;;;;;;18.45;8.73;;;;;;;;;;4994576;28;20027;-67
2022/05/17 02:19:25;;;;;;;22.88;9.02;;;;;;;;;;5009204;28;20023;-67
2022/05/17 02:21:51;;;;;;;16.88;9.13;;;;;;;;;;4994061;28;20042;-67
2022/05/17 02:24:17;;;;;;;17.50;9.35;;;;;;;;;;4992960;28;20487;-67
2022/05/17 02:26:43;;;;;;;24.08;10.25;;;;;;;;;;4994582;28;20517;-67
2022/05/17 02:29:09;;;;;;;20.77;9.75;;;;;;;;;;4993838;28;20037;-67
2022/05/17 02:31:35;;;;;;;26.67;10.00;;;;;;;;;;5000457;28;20046;-67
2022/05/17 02:34:02;;;;;;;24.42;11.07;;;;;;;;;;5013379;28;20072;-67
2022/05/17 02:36:29;;;;;;;22.50;9.45;;;;;;;;;;5013377;28;20018;-67
2022/05/17 02:38:55;;;;;;;17.42;7.90;;;;;;;;;;5013302;28;20026;-67
2022/05/17 02:41:23;;;;;;;15.48;6.47;;;;;;;;;;5013063;28;20096;-67
2022/05/17 02:43:50;;;;;;;18.23;5.93;;;;;;;;;;5012789;28;20033;-67
2022/05/17 02:46:16;;;;;;;14.00;5.40;;;;;;;;;;5013053;28;20018;-67
2022/05/17 02:48:42;;;;;;;12.38;5.13;;;;;;;;;;5013016;28;20243;-67
2022/05/17 02:51:16;;;;;;;12.70;5.78;;;;;;;;;;5012997;28;20475;-67
2022/05/17 02:53:42;;;;;;;;;;;;;;;;;;5013418;28;20026;-67
2022/05/17 02:56:08;;;;;;;13.35;6.40;;;;;;;;;;5012853;28;19906;-67
2022/05/17 02:58:35;;;;;;;20.45;7.65;;;;;;;;;;5012138;28;20034;-67
2022/05/17 03:01:01;;;;;;;18.58;7.53;;;;;;;;;;5011987;28;20589;-67
2022/05/17 03:03:27;;;;;;;15.43;7.15;;;;;;;;;;5012907;28;20045;-67
2022/05/17 03:05:53;;;;;;;13.68;7.63;;;;;;;;;;5013005;28;20032;-67
2022/05/17 03:08:20;;;;;;;20.88;8.02;;;;;;;;;;5012691;28;20112;-67
2022/05/17 03:10:46;;;;;;;16.05;7.88;;;;;;;;;;5027953;28;20032;-66
2022/05/17 03:13:13;;;;;;;16.52;7.50;;;;;;;;;;4995880;28;20384;-67
2022/05/17 03:15:40;;;;;;;17.63;7.30;;;;;;;;;;4993398;28;20030;-65
2022/05/17 03:18:06;;;;;;;12.32;5.88;;;;;;;;;;4992820;28;20053;-67
2022/05/17 03:20:32;;;;;;;14.57;5.18;;;;;;;;;;4992732;28;20038;-67
2022/05/17 03:22:58;;;;;;;13.73;5.88;;;;;;;;;;4992561;28;20105;-67
2022/05/17 03:25:24;;;;;;;15.77;6.18;;;;;;;;;;4992481;28;20021;-66
2022/05/17 03:27:51;;;;;;;17.60;6.65;;;;;;;;;;4992728;28;20034;-66
2022/05/17 03:30:17;;;;;;;15.82;6.80;;;;;;;;;;5007701;28;20105;-66
2022/05/17 03:32:43;;;;;;;17.02;7.45;;;;;;;;;;5007309;28;20081;-66
2022/05/17 03:35:10;;;;;;;16.92;6.88;;;;;;;;;;5010687;28;20045;-67
2022/05/17 03:37:36;;;;;;;10.27;5.63;;;;;;;;;;5012228;28;20044;-66
2022/05/17 03:40:04;;;;;;;12.75;5.25;;;;;;;;;;5012132;28;20033;-66
2022/05/17 03:42:30;;;;;;;13.57;5.85;;;;;;;;;;5012172;28;20022;-66
2022/05/17 03:44:56;;;;;;;14.05;5.75;;;;;;;;;;5012142;28;20038;-66
2022/05/17 03:47:22;;;;;;;12.77;5.75;;;;;;;;;;5011907;28;20053;-65
2022/05/17 03:49:48;;;;;;;15.50;6.28;;;;;;;;;;5011097;28;20540;-66
2022/05/17 03:52:14;;;;;;;12.48;6.63;;;;;;;;;;5011687;28;20014;-65
2022/05/17 03:54:41;;;;;;;19.83;7.35;;;;;;;;;;5011665;28;20537;-66
2022/05/17 03:57:07;;;;;;;18.35;7.70;;;;;;;;;;5011837;28;20048;-65
2022/05/17 03:59:34;;;;;;;11.98;6.75;;;;;;;;;;5011573;28;20038;-66
2022/05/17 04:02:01;;;;;;;12.85;6.57;;;;;;;;;;5010907;28;20018;-66
2022/05/17 04:04:27;;;;;;;13.88;6.80;;;;;;;;;;5011621;28;20466;-68
2022/05/17 04:06:53;;;;;;;17.48;6.93;;;;;;;;;;5007404;28;20104;-66
2022/05/17 04:09:19;;;;;;;14.35;6.95;;;;;;;;;;4991625;28;20045;-66
2022/05/17 04:11:46;;;;;;;20.48;7.60;;;;;;;;;;4992007;28;20045;-66
2022/05/17 04:14:12;;;;;;;15.43;7.22;;;;;;;;;;4991988;28;20042;-67
2022/05/17 04:16:40;;;;;;;18.13;7.78;;;;;;;;;;4991803;28;20475;-66
2022/05/17 04:19:06;;;;;;;18.05;9.23;;;;;;;;;;4991737;28;20482;-65
2022/05/17 04:21:33;;;;;;;18.45;8.68;;;;;;;;;;4991484;28;20052;-66
2022/05/17 04:23:59;;;;;;;15.75;9.18;;;;;;;;;;4992293;28;20484;-67
2022/05/17 04:26:26;;;;;;;16.20;7.82;;;;;;;;;;5007104;28;20121;-66
2022/05/17 04:28:52;;;;;;;15.75;7.47;;;;;;;;;;4991579;28;20034;-66
2022/05/17 04:31:18;;;;;;;14.77;7.68;;;;;;;;;;5010818;28;20160;-66
2022/05/17 04:33:44;;;;;;;14.50;8.52;;;;;;;;;;5011258;28;20026;-66
2022/05/17 04:36:11;;;;;;;17.95;9.80;;;;;;;;;;5011366;28;20049;-66
2022/05/17 04:38:37;;;;;;;17.35;8.50;;;;;;;;;;5011408;28;20037;-66
2022/05/17 04:41:04;;;;;;;17.88;7.60;;;;;;;;;;5010393;28;20037;-66
2022/05/17 04:43:30;;;;;;;17.40;7.63;;;;;;;;;;5011438;28;20037;-66
2022/05/17 04:45:57;;;;;;;11.80;7.38;;;;;;;;;;5011142;28;20018;-66
2022/05/17 04:48:26;;;;;;;15.40;6.75;;;;;;;;;;5013947;28;20042;-66
2022/05/17 04:50:52;;;;;;;12.50;6.88;;;;;;;;;;5015144;28;20018;-66
2022/05/17 04:53:19;;;;;;;14.70;7.22;;;;;;;;;;5015121;28;20021;-65
2022/05/17 04:55:45;;;;;;;12.65;6.88;;;;;;;;;;5015126;28;20018;-66
2022/05/17 04:58:11;;;;;;;12.88;7.25;;;;;;;;;;5014361;28;20057;-66
2022/05/17 05:00:37;;;;;;;11.43;7.20;;;;;;;;;;5014889;28;20367;-66
2022/05/17 05:03:04;;;;;;;12.70;7.43;;;;;;;;;;5014677;28;20014;-66
2022/05/17 05:05:30;;;;;;;12.45;7.65;;;;;;;;;;5014481;28;20034;-66
2022/05/17 05:07:56;;;;;;;12.98;7.50;;;;;;;;;;5015202;28;20034;-67
2022/05/17 05:10:23;;;;;;;12.25;7.15;;;;;;;;;;5014905;28;20033;-66
2022/05/17 05:12:49;;;;;;;16.08;8.18;;;;;;;;;;5014894;28;20018;-65
2022/05/17 05:15:16;;;;;;;13.95;8.00;;;;;;;;;;5007456;28;20038;-67
2022/05/17 05:17:42;;;;;;;12.43;6.85;;;;;;;;;;4994947;28;20031;-67
2022/05/17 05:20:13;;;;;;;15.43;7.47;;;;;;;;;;4995006;28;20034;-66
2022/05/17 05:22:39;;;;;;;11.98;7.05;;;;;;;;;;4994669;28;20050;-66
2022/05/17 05:25:06;;;;;;;12.75;7.90;;;;;;;;;;4995010;28;20101;-66
2022/05/17 05:27:36;;;;;;;14.55;7.50;;;;;;;;;;4994745;28;20121;-66
2022/05/17 05:30:04;;;;;;;14.43;7.53;;;;;;;;;;4994911;28;20065;-66
2022/05/17 05:32:30;;;;;;;13.23;7.32;;;;;;;;;;4995276;28;20118;-67
2022/05/17 05:34:56;;;;;;;11.23;6.85;;;;;;;;;;4994907;28;20031;-66
2022/05/17 05:37:22;;;;;;;11.68;6.47;;;;;;;;;;4994797;28;20030;-66
2022/05/17 05:39:48;;;;;;;12.93;7.65;;;;;;;;;;4994921;28;20487;-66
2022/05/17 05:42:14;;;;;;;12.02;6.78;;;;;;;;;;4994896;28;20471;-66
2022/05/17 05:44:40;;;;;;;12.18;6.13;;;;;;;;;;4994753;28;20030;-66
2022/05/17 05:47:07;;;;;;;14.18;6.50;;;;;;;;;;5009494;28;20030;-66
2022/05/17 05:49:33;;;;;;;14.63;7.78;;;;;;;;;;4995045;28;20483;-66
2022/05/17 05:51:59;;;;;;;14.93;8.13;;;;;;;;;;4994346;28;20022;-65
2022/05/17 05:54:25;;;;;;;16.63;9.05;;;;;;;;;;4994458;28;20034;-65
2022/05/17 05:56:52;;;;;;;13.68;6.85;;;;;;;;;;4994511;28;20030;-66
2022/05/17 05:59:18;;;;;;;44.78;22.67;;;;;;;;;;4994341;28;20041;-66
2022/05/17 06:01:44;;;;;;;13.43;6.97;;;;;;;;;;4999688;28;20014;-66
2022/05/17 06:04:10;;;;;;;16.65;6.97;;;;;;;;;;5013926;28;20565;-66
2022/05/17 06:06:37;;;;;;;14.23;6.72;;;;;;;;;;5003984;28;20030;-66
2022/05/17 06:09:03;;;;;;;17.10;7.20;;;;;;;;;;4994290;28;20499;-66
2022/05/17 06:11:30;;;;;;;12.75;6.95;;;;;;;;;;4994228;28;20022;-66
2022/05/17 06:13:56;;;;;;;15.15;6.85;;;;;;;;;;5009279;28;20125;-66
2022/05/17 06:16:22;;;;;;;17.92;7.95;;;;;;;;;;4993954;28;20025;-66
2022/05/17 06:18:48;;;;;;;18.90;8.23;;;;;;;;;;4994097;28;20053;-66
2022/05/17 06:21:14;;;;;;;14.02;7.03;;;;;;;;;;4993835;28;20027;-66
2022/05/17 06:23:40;;;;;;;15.93;7.63;;;;;;;;;;4994064;28;20499;-67
2022/05/17 06:26:06;;;;;;;11.77;6.53;;;;;;;;;;4993728;28;20034;-66
2022/05/17 06:28:33;;;;;;;15.13;7.55;;;;;;;;;;4994003;28;20026;-67
2022/05/17 06:30:59;;;;;;;18.52;7.88;;;;;;;;;;4993735;28;20035;-67
2022/05/17 06:33:26;;;;;;;15.55;7.65;;;;;;;;;;5010379;28;20037;-66
2022/05/17 06:35:53;;;;;;;18.38;7.90;;;;;;;;;;5012996;28;20026;-67
2022/05/17 06:38:19;;;;;;;17.02;7.80;;;;;;;;;;5012885;28;20068;-65
2022/05/17 06:40:45;;;;;;;16.55;7.45;;;;;;;;;;5012393;28;20045;-66
2022/05/17 06:43:11;;;;;;;15.60;7.40;;;;;;;;;;5013058;28;20080;-66
2022/05/17 06:45:38;;;;;;;18.45;7.97;;;;;;;;;;5013459;28;20553;-66
2022/05/17 06:48:04;;;;;;;20.50;8.25;;;;;;;;;;5012718;28;20113;-66
2022/05/17 06:50:31;;;;;;;15.73;8.25;;;;;;;;;;5012667;28;20080;-66
2022/05/17 06:52:58;;;;;;;19.55;8.23;;;;;;;;;;5012816;28;20014;-66
2022/05/17 06:55:24;;;;;;;20.05;7.95;;;;;;;;;;5028097;28;20173;-66
2022/05/17 06:57:51;;;;;;;15.70;8.07;;;;;;;;;;5011767;28;20029;-66
2022/05/17 07:00:19;;;;;;;18.02;8.02;;;;;;;;;;5012533;28;20049;-66
2022/05/17 07:02:45;;;;;;;18.50;9.13;;;;;;;;;;5012464;28;20339;-66
2022/05/17 07:05:12;;;;;;;17.45;10.13;;;;;;;;;;5012191;28;20097;-66
2022/05/17 07:07:38;;;;;;;22.05;9.75;;;;;;;;;;5012260;28;20033;-66
2022/05/17 07:13:09;;;;;;;14.40;7.85;;;;;;;;;;5012616;28;20045;-66
2022/05/17 07:15:36;;;;;;;14.23;7.78;;;;;;;;;;4994525;28;20034;-66
2022/05/17 07:18:02;;;;;;;16.60;7.60;;;;;;;;;;4992720;28;20092;-66
2022/05/17 07:20:29;;;;;;;14.25;8.00;;;;;;;;;;4993089;28;20371;-66
2022/05/17 07:22:55;;;;;;;15.50;7.55;;;;;;;;;;4992391;28;20189;-66
2022/05/17 07:25:21;;;;;;;16.15;7.78;;;;;;;;;;4992397;28;20089;-67
2022/05/17 07:27:48;;;;;;;18.02;8.48;;;;;;;;;;4992355;28;20030;-67
2022/05/17 07:30:14;;;;;;;11.70;6.15;;;;;;;;;;5007509;28;20045;-66
2022/05/17 07:32:41;;;;;;;13.85;6.35;;;;;;;;;;5003430;28;20560;-67
2022/05/17 07:35:07;;;;;;;12.23;5.65;;;;;;;;;;5012079;28;20033;-67
2022/05/17 07:37:34;;;;;;;9.65;4.63;;;;;;;;;;5011670;28;20110;-66
2022/05/17 07:40:00;;;;;;;10.23;5.72;;;;;;;;;;5011710;28;20069;-67
2022/05/17 07:42:26;;;;;;;12.88;5.88;;;;;;;;;;5011625;28;20022;-66
2022/05/17 07:44:52;;;;;;;13.15;4.93;;;;;;;;;;5011746;28;20022;-67
2022/05/17 07:47:19;;;;;;;8.77;4.13;;;;;;;;;;5011661;28;20022;-67
2022/05/17 07:49:45;;;;;;;10.10;4.30;;;;;;;;;;5010710;28;20033;-66
2022/05/17 07:52:11;;;;;;;9.43;3.47;;;;;;;;;;5011095;28;20018;-66
2022/05/17 07:54:37;;;;;;;7.15;2.83;;;;;;;;;;5011341;28;20059;-67
2022/05/17 07:57:07;;;;;;;6.32;2.30;;;;;;;;;;5011195;28;20053;-67
2022/05/17 07:59:33;;;;;;;5.30;2.10;;;;;;;;;;5011384;28;20030;-67
2022/05/17 08:01:59;;;;;;;6.85;1.83;;;;;;;;;;5011437;28;20392;-67
2022/05/17 08:04:28;;;;;;;5.20;1.83;;;;;;;;;;5010875;28;20030;-66
2022/05/17 08:06:56;;;;;;;8.13;1.70;;;;;;;;;;4991486;28;20391;-66
2022/05/17 08:09:23;;;;;;;9.05;1.90;;;;;;;;;;4991971;28;20113;-67
2022/05/17 08:11:49;;;;;;;11.75;2.42;;;;;;;;;;4993645;28;20022;-67
2022/05/17 08:14:15;;;;;;;7.78;1.92;;;;;;;;;;5011391;28;20541;-67
2022/05/17 08:16:42;;;;;;;9.63;2.20;;;;;;;;;;5011388;28;20026;-67
2022/05/17 08:19:09;;;;;;;12.93;2.92;;;;;;;;;;5011195;28;20026;-67
2022/05/17 08:21:35;;;;;;;7.03;1.80;;;;;;;;;;5008517;28;20024;-67
2022/05/17 08:24:02;;;;;;;5.93;1.95;;;;;;;;;;4991592;28;20026;-67
2022/05/17 08:29:13;;;;;;;7.32;1.90;;;;;;;;;;4991563;28;20514;-67
2022/05/17 08:31:39;;;;;;;6.95;2.17;;;;;;;;;;4991552;28;20030;-67
2022/05/17 08:34:08;;;;;;;6.82;1.88;;;;;;;;;;4998740;28;20033;-67
2022/05/17 08:36:34;;;;;;;7.38;1.88;;;;;;;;;;5010827;28;20080;-69
2022/05/17 08:39:00;;;;;;;7.97;2.00;;;;;;;;;;5010063;28;20034;-67
2022/05/17 08:41:26;;;;;;;17.10;2.47;;;;;;;;;;5011079;28;21211;-67
2022/05/17 08:43:52;;;;;;;7.55;1.80;;;;;;;;;;5010936;28;20029;-67
2022/05/17 08:46:18;;;;;;;11.55;2.22;;;;;;;;;;5010926;28;20030;-66
2022/05/17 08:49:08;;;;;;;9.65;1.83;;;;;;;;;;5010783;28;20037;-66
2022/05/17 08:51:34;;;;;;;7.75;1.77;;;;;;;;;;5010701;28;20042;-66
2022/05/17 08:54:00;;;;;;;10.80;2.08;;;;;;;;;;5011058;28;20063;-67
2022/05/17 08:56:29;;;;;;;4.95;1.90;;;;;;;;;;5010222;28;20030;-66
2022/05/17 08:58:55;;;;;;;6.85;2.17;;;;;;;;;;5010797;28;20482;-67
2022/05/17 09:01:28;;;;;;;8.30;1.98;;;;;;;;;;5010813;28;20026;-67
2022/05/17 09:04:00;;;;;;;8.70;2.10;;;;;;;;;;5010656;28;20018;-66
2022/05/17 09:06:26;;;;;;;7.38;2.10;;;;;;;;;;5010871;28;20064;-66
2022/05/17 09:08:56;;;;;;;8.00;2.35;;;;;;;;;;5010725;28;20494;-66
2022/05/17 09:11:29;;;;;;;6.85;2.13;;;;;;;;;;5010724;28;20466;-66
2022/05/17 09:13:55;;;;;;;7.45;2.03;;;;;;;;;;5010137;28;20034;-66
2022/05/17 09:16:23;;;;;;;7.63;2.22;;;;;;;;;;5010888;28;20030;-66
2022/05/17 09:18:50;;;;;;;5.05;2.00;;;;;;;;;;5010805;28;20026;-66
2022/05/17 09:21:36;;;;;;;7.30;2.20;;;;;;;;;;5010839;28;20483;-66
2022/05/17 09:24:04;;;;;;;10.82;2.40;;;;;;;;;;5010724;28;20057;-68
2022/05/17 09:26:31;;;;;;;5.90;2.20;;;;;;;;;;5010693;28;20057;-66
2022/05/17 09:29:00;;;;;;;5.32;2.17;;;;;;;;;;5010495;28;20034;-67
2022/05/17 09:31:29;;;;;;;11.90;2.20;;;;;;;;;;5025165;28;20033;-66
2022/05/17 09:33:56;;;;;;;5.43;2.10;;;;;;;;;;5012327;28;20060;-66
2022/05/17 09:36:24;;;;;;;7.50;2.28;;;;;;;;;;5014422;28;20170;-67
2022/05/17 09:38:52;;;;;;;8.32;2.20;;;;;;;;;;5014480;28;20350;-66
2022/05/17 09:41:21;;;;;;;6.00;2.00;;;;;;;;;;5014202;28;20026;-66
2022/05/17 09:43:59;;;;;;;5.80;2.30;;;;;;;;;;5014244;28;20021;-62
2022/05/17 09:46:43;;;;;;;9.43;2.40;;;;;;;;;;5013414;28;20571;-62
2022/05/17 09:54:53;;;;;;;8.73;2.03;;;;;;;;;;4994485;28;20038;-64
2022/05/17 09:57:26;;;;;;;11.45;2.80;;;;;;;;;;4994199;28;20505;-63
2022/05/17 09:59:56;;;;;;;7.88;2.25;;;;;;;;;;4994169;28;20541;-64
2022/05/17 10:02:32;;;;;;;6.60;1.83;;;;;;;;;;4994067;28;20057;-64
2022/05/17 10:04:59;;;;;;;6.45;1.75;;;;;;;;;;4994594;28;20085;-64
2022/05/17 10:07:28;;;;;;;7.95;1.98;;;;;;;;;;4994123;28;20023;-65
2022/05/17 10:09:54;;;;;;;6.32;2.03;;;;;;;;;;4993928;28;20086;-65
2022/05/17 10:12:29;;;;;;;6.43;2.28;;;;;;;;;;4993990;28;20054;-65
2022/05/17 10:14:57;;;;;;;6.88;2.17;;;;;;;;;;4993760;28;20033;-65
2022/05/17 10:17:35;;;;;;;8.57;2.25;;;;;;;;;;4993443;28;20022;-65
2022/05/17 10:20:05;;;;;;;9.75;2.10;;;;;;;;;;4993703;28;20054;-65
2022/05/17 10:22:36;;;;;;;5.80;2.03;;;;;;;;;;4993892;28;20057;-65
2022/05/17 10:25:04;;;;;;;7.82;2.10;;;;;;;;;;4993461;28;20018;-64
2022/05/17 10:27:33;;;;;;;6.18;1.75;;;;;;;;;;4993749;28;20023;-64
2022/05/17 10:30:20;;;;;;;7.63;1.67;;;;;;;;;;4993436;28;20395;-64
2022/05/17 10:32:51;;;;;;;5.85;1.70;;;;;;;;;;4992935;28;20030;-64
2022/05/17 10:35:17;;;;;;;6.30;1.70;;;;;;;;;;5010687;28;20087;-64
2022/05/17 10:37:47;;;;;;;5.18;1.42;;;;;;;;;;5012360;28;20100;-64
2022/05/17 10:40:16;;;;;;;5.50;1.67;;;;;;;;;;5013144;28;20034;-64
2022/05/17 10:42:43;;;;;;;4.25;1.60;;;;;;;;;;5013093;28;20022;-64
2022/05/17 10:45:11;;;;;;;5.72;1.80;;;;;;;;;;5012063;28;20037;-63
2022/05/17 10:47:53;;;;;;;5.22;1.98;;;;;;;;;;5012898;28;20022;-64
2022/05/17 10:50:19;;;;;;;5.22;1.92;;;;;;;;;;5012738;28;20104;-65
2022/05/17 10:52:58;;;;;;;4.70;1.40;;;;;;;;;;5012401;28;20399;-64
2022/05/17 10:55:42;;;;;;;6.40;1.67;;;;;;;;;;5011863;28;20029;-64
2022/05/17 10:58:27;;;;;;;5.82;1.38;;;;;;;;;;5012556;28;20467;-64
2022/05/17 11:00:59;;;;;;;3.28;1.25;;;;;;;;;;5012423;28;20038;-64
2022/05/17 11:03:44;;;;;;;3.37;1.33;;;;;;;;;;5012284;28;20068;-64
2022/05/17 11:06:29;;;;;;;6.85;1.42;;;;;;;;;;5012299;28;20554;-64
2022/05/17 11:08:58;;;;;;;4.88;1.02;;;;;;;;;;5012018;28;20048;-62
2022/05/17 11:11:42;;;;;;;4.10;1.23;;;;;;;;;;5011727;28;20033;-63
2022/05/17 11:14:11;;;;;;;4.78;1.48;;;;;;;;;;4992355;28;20139;-63
2022/05/17 11:16:49;;;;;;;3.70;1.08;;;;;;;;;;4992433;28;20031;-64
2022/05/17 11:19:15;;;;;;;4.03;1.23;;;;;;;;;;4998232;28;20120;-64
2022/05/17 11:21:52;;;;;;;5.22;1.30;;;;;;;;;;5011857;28;20025;-64
2022/05/17 11:24:37;;;;;;;4.32;1.10;;;;;;;;;;5011866;28;20169;-64
2022/05/17 11:27:03;;;;;;;4.53;1.50;;;;;;;;;;5011957;28;20147;-64
2022/05/17 11:29:39;;;;;;;6.07;1.38;;;;;;;;;;5002823;28;20101;-63
2022/05/17 11:32:25;;;;;;;5.88;1.23;;;;;;;;;;4992510;28;20033;-63
2022/05/17 11:34:53;;;;;;;5.97;1.20;;;;;;;;;;4993686;28;20022;-61
2022/05/17 11:37:38;;;;;;;5.60;1.90;;;;;;;;;;5011578;28;20070;-64
2022/05/17 11:40:04;;;;;;;5.30;1.20;;;;;;;;;;5012025;28;20040;-63
2022/05/17 11:42:30;;;;;;;3.17;0.93;;;;;;;;;;5011772;28;20034;-64
2022/05/17 11:44:57;;;;;;;5.40;1.05;;;;;;;;;;5011593;28;20026;-64
2022/05/17 11:47:28;;;;;;;3.20;1.13;;;;;;;;;;5010505;28;20024;-64
2022/05/17 11:50:14;;;;;;;5.10;1.13;;;;;;;;;;5011502;28;20037;-63
2022/05/17 11:52:40;;;;;;;4.78;1.30;;;;;;;;;;5011150;28;20176;-63
2022/05/17 11:55:07;;;;;;;6.65;1.17;;;;;;;;;;5011362;28;20041;-63
2022/05/17 11:57:33;;;;;;;4.65;1.00;;;;;;;;;;5011473;28;20026;-63
2022/05/17 12:00:10;;;;;;;3.20;0.85;;;;;;;;;;5011603;28;20029;-63
2022/05/17 12:02:51;;;;;;;4.88;1.10;;;;;;;;;;5009942;28;20052;-63
2022/05/17 12:05:36;;;;;;;3.60;1.00;;;;;;;;;;5007495;28;20021;-64
2022/05/17 12:08:21;;;;;;;5.80;0.98;;;;;;;;;;5010952;28;20430;-63
2022/05/17 12:10:48;;;;;;;4.32;0.90;;;;;;;;;;5011189;28;20030;-64
2022/05/17 12:13:15;;;;;;;6.15;1.05;;;;;;;;;;5011316;28;20045;-64
2022/05/17 12:15:45;;;;;;;5.43;1.20;;;;;;;;;;5011015;28;20037;-63
2022/05/17 12:18:24;;;;;;;4.97;1.38;;;;;;;;;;5010922;28;20025;-63
2022/05/17 12:21:13;;;;;;;4.88;0.93;;;;;;;;;;4998838;28;20022;-64
2022/05/17 12:23:46;;;;;;;3.90;1.10;;;;;;;;;;4991104;28;20057;-63
2022/05/17 12:26:23;;;;;;;6.38;1.35;;;;;;;;;;4991541;28;20361;-64
2022/05/17 12:28:53;;;;;;;4.13;1.05;;;;;;;;;;4991559;28;20030;-63
2022/05/17 12:31:27;;;;;;;7.90;1.48;;;;;;;;;;4991686;28;20041;-63
2022/05/17 12:33:53;;;;;;;;;;;;;;;;;;5007051;28;20026;-64
2022/05/17 12:36:21;;;;;;;3.13;0.90;;;;;;;;;;5004852;28;19913;-63
2022/05/17 12:44:25;;;;;;;6.70;1.00;;;;;;;;;;5011327;28;20105;-63
2022/05/17 12:46:53;;;;;;;3.83;1.08;;;;;;;;;;5010918;28;20022;-63
2022/05/17 12:49:20;;;;;;;3.33;0.90;;;;;;;;;;5010784;28;20489;-63
2022/05/17 12:51:47;;;;;;;8.95;1.10;;;;;;;;;;5010663;28;20034;-63
2022/05/17 12:54:15;;;;;;;5.55;1.00;;;;;;;;;;5024999;28;20026;-63
2022/05/17 12:56:43;;;;;;;4.57;1.15;;;;;;;;;;5010990;28;20030;-64
2022/05/17 12:59:11;;;;;;;4.35;1.13;;;;;;;;;;5010918;28;20030;-63
2022/05/17 13:01:51;;;;;;;4.97;1.10;;;;;;;;;;5010791;28;20037;-63
2022/05/17 13:04:18;;;;;;;3.38;0.98;;;;;;;;;;5026073;28;20033;-63
2022/05/17 13:06:49;;;;;;;3.47;1.00;;;;;;;;;;5010802;28;20512;-63
2022/05/17 13:09:17;;;;;;;5.57;1.23;;;;;;;;;;5013394;28;20042;-63
2022/05/17 13:11:44;;;;;;;6.85;1.45;;;;;;;;;;5003672;28;20029;-63
2022/05/17 13:14:11;;;;;;;6.53;1.20;;;;;;;;;;4995287;28;20066;-62
2022/05/17 13:16:41;;;;;;;3.58;1.13;;;;;;;;;;4994763;28;20034;-63
2022/05/17 13:19:09;;;;;;;4.57;1.20;;;;;;;;;;4994879;28;20034;-62
2022/05/17 13:21:38;;;;;;;4.45;1.20;;;;;;;;;;4995041;28;20023;-63
2022/05/17 13:24:06;;;;;;;4.95;1.33;;;;;;;;;;4994838;28;20034;-63
2022/05/17 13:26:33;;;;;;;4.47;1.10;;;;;;;;;;5009591;28;20168;-63
2022/05/17 13:29:14;;;;;;;5.40;1.27;;;;;;;;;;4995452;28;20030;-63
2022/05/17 13:31:40;;;;;;;4.32;1.20;;;;;;;;;;4994731;28;20030;-63
2022/05/17 13:34:06;;;;;;;7.63;1.55;;;;;;;;;;4994762;28;20026;-63
2022/05/17 13:36:34;;;;;;;6.45;1.40;;;;;;;;;;5009885;28;20026;-63
2022/05/17 13:39:01;;;;;;;10.15;2.08;;;;;;;;;;5014246;28;20108;-63
2022/05/17 13:41:32;;;;;;;4.65;1.50;;;;;;;;;;5014444;28;20088;-63
2022/05/17 13:43:59;;;;;;;5.80;1.85;;;;;;;;;;5014110;28;20040;-63
2022/05/17 13:46:29;;;;;;;5.88;1.52;;;;;;;;;;5011845;28;20391;-62
2022/05/17 13:48:58;;;;;;;3.40;1.40;;;;;;;;;;5029200;28;20038;-63
2022/05/17 13:51:25;;;;;;;4.68;1.23;;;;;;;;;;5014083;28;20030;-62
2022/05/17 13:53:55;;;;;;;6.93;1.30;;;;;;;;;;5014178;28;20030;-63
2022/05/17 13:56:28;;;;;;;7.07;1.33;;;;;;;;;;5013984;28;20029;-62
2022/05/17 13:58:54;;;;;;;6.53;1.67;;;;;;;;;;5013770;28;20478;-62
2022/05/17 14:01:33;;;;;;;4.20;1.30;;;;;;;;;;5013866;28;20034;-63
2022/05/17 14:04:05;;;;;;;7.20;1.33;;;;;;;;;;4994183;28;20035;-62
2022/05/17 14:06:42;;;;;;;5.55;1.20;;;;;;;;;;5006072;28;20022;-63
2022/05/17 14:11:55;;;;;;;2.88;0.85;;;;;;;;;;5013648;28;20494;-62
2022/05/17 14:14:23;;;;;;;4.90;1.00;;;;;;;;;;5013594;28;20033;-63
2022/05/17 14:17:01;;;;;;;4.05;0.90;;;;;;;;;;5013092;28;20037;-63
2022/05/17 14:19:28;;;;;;;3.83;1.10;;;;;;;;;;5011241;28;20030;-63
2022/05/17 14:21:57;;;;;;;5.68;1.02;;;;;;;;;;5012679;28;20041;-63
2022/05/17 14:24:23;;;;;;;3.08;0.80;;;;;;;;;;5013106;28;20033;-63
2022/05/17 14:26:50;;;;;;;3.53;1.00;;;;;;;;;;5012425;28;20089;-63
2022/05/17 14:29:17;;;;;;;2.28;0.80;;;;;;;;;;5012997;28;20046;-63
2022/05/17 14:31:44;;;;;;;4.47;1.00;;;;;;;;;;5013238;28;20155;-63
2022/05/17 14:34:13;;;;;;;3.90;1.00;;;;;;;;;;5013143;28;20029;-64
2022/05/17 14:36:39;;;;;;;5.60;0.90;;;;;;;;;;5003168;28;20024;-63
2022/05/17 14:39:05;;;;;;;3.35;1.10;;;;;;;;;;4993570;28;20030;-63
2022/05/17 14:41:31;;;;;;;3.22;0.82;;;;;;;;;;5008474;28;20032;-63
2022/05/17 14:43:59;;;;;;;2.63;0.90;;;;;;;;;;4993491;28;20022;-63
2022/05/17 14:46:25;;;;;;;3.03;0.77;;;;;;;;;;4993244;28;20348;-63
2022/05/17 14:48:52;;;;;;;5.63;0.90;;;;;;;;;;4991739;28;20189;-63
2022/05/17 14:51:21;;;;;;;6.40;0.80;;;;;;;;;;4993568;28;20038;-63
2022/05/17 14:53:48;;;;;;;2.97;0.85;;;;;;;;;;4994254;28;20022;-63
2022/05/17 14:56:14;;;;;;;4.70;1.27;;;;;;;;;;5008345;28;20050;-62
2022/05/17 14:58:41;;;;;;;4.68;1.00;;;;;;;;;;4993224;28;20019;-63
2022/05/17 15:01:07;;;;;;;7.88;1.83;;;;;;;;;;4993146;28;20526;-63
2022/05/17 15:03:38;;;;;;;4.20;1.15;;;;;;;;;;4992818;28;20023;-64
2022/05/17 15:06:04;;;;;;;4.05;1.08;;;;;;;;;;5001040;28;20473;-63